sensor_id;sensor_type;location;lat;lon;timestamp;P1;durP1;ratioP1;P2;durP2;ratioP2
6386;SDS011;3226;42.162;24.756;2024-03-06T00:01:44;50.80;;;25.00;;
6386;SDS011;3226;42.162;24.756;2024-03-06T00:04:14;41.87;;;24.73;;
6386;SDS011;3226;42.162;24.756;2024-03-06T00:06:45;48.03;;;25.73;;
6386;SDS011;3226;42.162;24.756;2024-03-06T00:09:13;48.47;;;25.37;;
6386;SDS011;3226;42.162;24.756;2024-03-06T00:11:41;47.80;;;24.77;;
6386;SDS011;3226;42.162;24.756;2024-03-06T00:14:09;49.40;;;25.70;;
6386;SDS011;3226;42.162;24.756;2024-03-06T00:16:39;52.37;;;26.77;;
6386;SDS011;3226;42.162;24.756;2024-03-06T00:19:07;47.07;;;25.23;;
6386;SDS011;3226;42.162;24.756;2024-03-06T00:21:36;49.73;;;25.53;;
6386;SDS011;3226;42.162;24.756;2024-03-06T00:24:04;48.43;;;25.83;;
6386;SDS011;3226;42.162;24.756;2024-03-06T00:26:33;48.43;;;25.47;;
6386;SDS011;3226;42.162;24.756;2024-03-06T00:29:01;46.07;;;27.03;;
6386;SDS011;3226;42.162;24.756;2024-03-06T00:31:29;48.10;;;25.40;;
6386;SDS011;3226;42.162;24.756;2024-03-06T00:33:57;57.10;;;25.77;;
6386;SDS011;3226;42.162;24.756;2024-03-06T00:36:25;46.90;;;25.13;;
6386;SDS011;3226;42.162;24.756;2024-03-06T00:38:54;47.30;;;24.67;;
6386;SDS011;3226;42.162;24.756;2024-03-06T00:41:22;53.60;;;26.13;;
6386;SDS011;3226;42.162;24.756;2024-03-06T00:43:50;54.03;;;25.70;;
6386;SDS011;3226;42.162;24.756;2024-03-06T00:46:18;51.90;;;26.57;;
6386;SDS011;3226;42.162;24.756;2024-03-06T00:48:46;50.60;;;27.03;;
6386;SDS011;3226;42.162;24.756;2024-03-06T00:51:14;52.77;;;26.60;;
6386;SDS011;3226;42.162;24.756;2024-03-06T00:53:42;50.00;;;28.43;;
6386;SDS011;3226;42.162;24.756;2024-03-06T00:56:12;51.57;;;28.73;;
6386;SDS011;3226;42.162;24.756;2024-03-06T00:58:40;56.47;;;28.70;;
6386;SDS011;3226;42.162;24.756;2024-03-06T01:01:08;52.70;;;28.17;;
6386;SDS011;3226;42.162;24.756;2024-03-06T01:03:37;59.10;;;28.70;;
6386;SDS011;3226;42.162;24.756;2024-03-06T01:06:05;60.03;;;28.30;;
6386;SDS011;3226;42.162;24.756;2024-03-06T01:08:33;55.13;;;28.37;;
6386;SDS011;3226;42.162;24.756;2024-03-06T01:11:01;58.50;;;28.27;;
6386;SDS011;3226;42.162;24.756;2024-03-06T01:13:32;58.73;;;28.53;;
6386;SDS011;3226;42.162;24.756;2024-03-06T01:16:00;55.77;;;27.70;;
6386;SDS011;3226;42.162;24.756;2024-03-06T01:18:28;53.93;;;28.40;;
6386;SDS011;3226;42.162;24.756;2024-03-06T01:20:56;56.70;;;27.23;;
6386;SDS011;3226;42.162;24.756;2024-03-06T01:23:24;58.40;;;26.73;;
6386;SDS011;3226;42.162;24.756;2024-03-06T01:25:52;56.53;;;27.63;;
6386;SDS011;3226;42.162;24.756;2024-03-06T01:28:20;57.20;;;27.17;;
6386;SDS011;3226;42.162;24.756;2024-03-06T01:30:49;61.50;;;28.97;;
6386;SDS011;3226;42.162;24.756;2024-03-06T01:33:17;58.07;;;26.57;;
6386;SDS011;3226;42.162;24.756;2024-03-06T01:35:45;54.30;;;27.87;;
6386;SDS011;3226;42.162;24.756;2024-03-06T01:38:13;57.10;;;26.93;;
6386;SDS011;3226;42.162;24.756;2024-03-06T01:40:43;47.53;;;25.30;;
6386;SDS011;3226;42.162;24.756;2024-03-06T01:43:21;45.40;;;26.00;;
6386;SDS011;3226;42.162;24.756;2024-03-06T01:45:51;45.47;;;25.43;;
6386;SDS011;3226;42.162;24.756;2024-03-06T01:48:21;52.90;;;26.70;;
6386;SDS011;3226;42.162;24.756;2024-03-06T01:50:52;56.17;;;28.27;;
6386;SDS011;3226;42.162;24.756;2024-03-06T01:53:21;49.17;;;26.13;;
6386;SDS011;3226;42.162;24.756;2024-03-06T01:55:51;54.30;;;28.07;;
6386;SDS011;3226;42.162;24.756;2024-03-06T01:58:19;51.80;;;26.23;;
6386;SDS011;3226;42.162;24.756;2024-03-06T02:00:48;45.77;;;25.90;;
6386;SDS011;3226;42.162;24.756;2024-03-06T02:03:18;51.80;;;28.03;;
6386;SDS011;3226;42.162;24.756;2024-03-06T02:05:46;50.33;;;26.07;;
6386;SDS011;3226;42.162;24.756;2024-03-06T02:08:16;47.40;;;26.03;;
6386;SDS011;3226;42.162;24.756;2024-03-06T02:10:44;47.90;;;26.93;;
6386;SDS011;3226;42.162;24.756;2024-03-06T02:13:13;48.57;;;25.33;;
6386;SDS011;3226;42.162;24.756;2024-03-06T02:15:42;52.53;;;26.43;;
6386;SDS011;3226;42.162;24.756;2024-03-06T02:18:12;54.47;;;26.77;;
6386;SDS011;3226;42.162;24.756;2024-03-06T02:20:41;52.50;;;26.23;;
6386;SDS011;3226;42.162;24.756;2024-03-06T02:23:09;53.37;;;28.03;;
6386;SDS011;3226;42.162;24.756;2024-03-06T02:25:37;58.63;;;26.93;;
6386;SDS011;3226;42.162;24.756;2024-03-06T02:28:05;56.23;;;27.73;;
6386;SDS011;3226;42.162;24.756;2024-03-06T02:30:33;49.77;;;26.30;;
6386;SDS011;3226;42.162;24.756;2024-03-06T02:33:04;50.37;;;26.20;;
6386;SDS011;3226;42.162;24.756;2024-03-06T02:35:33;50.30;;;26.40;;
6386;SDS011;3226;42.162;24.756;2024-03-06T02:38:04;56.83;;;28.53;;
6386;SDS011;3226;42.162;24.756;2024-03-06T02:40:32;55.33;;;27.90;;
6386;SDS011;3226;42.162;24.756;2024-03-06T02:43:00;48.27;;;25.33;;
6386;SDS011;3226;42.162;24.756;2024-03-06T02:45:29;52.53;;;26.10;;
6386;SDS011;3226;42.162;24.756;2024-03-06T02:47:57;48.93;;;27.90;;
6386;SDS011;3226;42.162;24.756;2024-03-06T02:50:25;50.97;;;27.20;;
6386;SDS011;3226;42.162;24.756;2024-03-06T02:52:53;52.40;;;26.33;;
6386;SDS011;3226;42.162;24.756;2024-03-06T02:55:22;49.00;;;26.60;;
6386;SDS011;3226;42.162;24.756;2024-03-06T02:57:51;48.17;;;25.27;;
6386;SDS011;3226;42.162;24.756;2024-03-06T03:00:19;53.13;;;26.50;;
6386;SDS011;3226;42.162;24.756;2024-03-06T03:02:48;44.23;;;25.23;;
6386;SDS011;3226;42.162;24.756;2024-03-06T03:05:16;45.10;;;25.80;;
6386;SDS011;3226;42.162;24.756;2024-03-06T03:07:44;42.93;;;25.90;;
6386;SDS011;3226;42.162;24.756;2024-03-06T03:10:12;48.00;;;26.20;;
6386;SDS011;3226;42.162;24.756;2024-03-06T03:12:42;47.90;;;25.37;;
6386;SDS011;3226;42.162;24.756;2024-03-06T03:15:10;50.00;;;25.63;;
6386;SDS011;3226;42.162;24.756;2024-03-06T03:17:38;50.67;;;25.63;;
6386;SDS011;3226;42.162;24.756;2024-03-06T03:20:06;53.70;;;24.33;;
6386;SDS011;3226;42.162;24.756;2024-03-06T03:22:38;45.60;;;24.37;;
6386;SDS011;3226;42.162;24.756;2024-03-06T03:25:07;48.83;;;26.50;;
6386;SDS011;3226;42.162;24.756;2024-03-06T03:27:36;47.67;;;24.37;;
6386;SDS011;3226;42.162;24.756;2024-03-06T03:30:06;46.47;;;25.90;;
6386;SDS011;3226;42.162;24.756;2024-03-06T03:32:36;40.20;;;23.97;;
6386;SDS011;3226;42.162;24.756;2024-03-06T03:35:05;45.80;;;25.17;;
6386;SDS011;3226;42.162;24.756;2024-03-06T03:37:34;45.57;;;25.70;;
6386;SDS011;3226;42.162;24.756;2024-03-06T03:40:02;44.63;;;25.27;;
6386;SDS011;3226;42.162;24.756;2024-03-06T03:42:30;50.40;;;26.30;;
6386;SDS011;3226;42.162;24.756;2024-03-06T03:44:58;49.63;;;26.40;;
6386;SDS011;3226;42.162;24.756;2024-03-06T03:47:27;49.97;;;25.10;;
6386;SDS011;3226;42.162;24.756;2024-03-06T03:49:55;56.87;;;28.07;;
6386;SDS011;3226;42.162;24.756;2024-03-06T03:52:35;44.40;;;24.70;;
6386;SDS011;3226;42.162;24.756;2024-03-06T03:55:08;45.73;;;23.77;;
6386;SDS011;3226;42.162;24.756;2024-03-06T03:57:36;47.43;;;25.13;;
6386;SDS011;3226;42.162;24.756;2024-03-06T04:00:04;42.27;;;23.03;;
6386;SDS011;3226;42.162;24.756;2024-03-06T04:02:39;39.47;;;22.57;;
6386;SDS011;3226;42.162;24.756;2024-03-06T04:05:07;39.70;;;21.57;;
6386;SDS011;3226;42.162;24.756;2024-03-06T04:07:37;39.93;;;23.23;;
6386;SDS011;3226;42.162;24.756;2024-03-06T04:10:06;32.07;;;19.73;;
6386;SDS011;3226;42.162;24.756;2024-03-06T04:12:38;30.87;;;20.50;;
6386;SDS011;3226;42.162;24.756;2024-03-06T04:15:06;35.07;;;20.93;;
6386;SDS011;3226;42.162;24.756;2024-03-06T04:17:35;37.10;;;20.67;;
6386;SDS011;3226;42.162;24.756;2024-03-06T04:20:05;34.27;;;19.23;;
6386;SDS011;3226;42.162;24.756;2024-03-06T04:22:34;37.70;;;21.70;;
6386;SDS011;3226;42.162;24.756;2024-03-06T04:25:02;35.70;;;21.10;;
6386;SDS011;3226;42.162;24.756;2024-03-06T04:27:31;38.27;;;21.87;;
6386;SDS011;3226;42.162;24.756;2024-03-06T04:29:59;34.33;;;18.90;;
6386;SDS011;3226;42.162;24.756;2024-03-06T04:32:27;36.30;;;19.80;;
6386;SDS011;3226;42.162;24.756;2024-03-06T04:34:55;34.83;;;20.37;;
6386;SDS011;3226;42.162;24.756;2024-03-06T04:37:25;32.50;;;20.90;;
6386;SDS011;3226;42.162;24.756;2024-03-06T04:39:55;40.73;;;21.20;;
6386;SDS011;3226;42.162;24.756;2024-03-06T04:42:23;37.73;;;21.53;;
6386;SDS011;3226;42.162;24.756;2024-03-06T04:44:51;34.53;;;20.47;;
6386;SDS011;3226;42.162;24.756;2024-03-06T04:47:19;34.50;;;19.07;;
6386;SDS011;3226;42.162;24.756;2024-03-06T04:49:47;35.50;;;21.60;;
6386;SDS011;3226;42.162;24.756;2024-03-06T04:52:16;39.00;;;21.77;;
6386;SDS011;3226;42.162;24.756;2024-03-06T04:54:45;39.03;;;24.77;;
6386;SDS011;3226;42.162;24.756;2024-03-06T04:57:13;41.90;;;23.10;;
6386;SDS011;3226;42.162;24.756;2024-03-06T04:59:41;40.53;;;22.30;;
6386;SDS011;3226;42.162;24.756;2024-03-06T05:02:09;37.27;;;20.80;;
6386;SDS011;3226;42.162;24.756;2024-03-06T05:04:37;34.07;;;19.33;;
6386;SDS011;3226;42.162;24.756;2024-03-06T05:07:23;29.60;;;19.93;;
6386;SDS011;3226;42.162;24.756;2024-03-06T05:10:10;29.27;;;19.80;;
6386;SDS011;3226;42.162;24.756;2024-03-06T05:12:55;29.13;;;18.90;;
6386;SDS011;3226;42.162;24.756;2024-03-06T05:15:41;26.20;;;17.83;;
6386;SDS011;3226;42.162;24.756;2024-03-06T05:18:27;28.50;;;17.53;;
6386;SDS011;3226;42.162;24.756;2024-03-06T05:21:12;25.53;;;16.50;;
6386;SDS011;3226;42.162;24.756;2024-03-06T05:23:57;27.83;;;16.87;;
6386;SDS011;3226;42.162;24.756;2024-03-06T05:26:44;24.97;;;16.53;;
6386;SDS011;3226;42.162;24.756;2024-03-06T05:29:30;24.60;;;15.17;;
6386;SDS011;3226;42.162;24.756;2024-03-06T05:32:15;24.80;;;15.93;;
6386;SDS011;3226;42.162;24.756;2024-03-06T05:35:01;23.60;;;16.57;;
6386;SDS011;3226;42.162;24.756;2024-03-06T05:37:47;23.00;;;14.87;;
6386;SDS011;3226;42.162;24.756;2024-03-06T05:40:33;28.57;;;16.37;;
6386;SDS011;3226;42.162;24.756;2024-03-06T05:43:22;23.77;;;15.53;;
6386;SDS011;3226;42.162;24.756;2024-03-06T05:46:08;23.23;;;17.00;;
6386;SDS011;3226;42.162;24.756;2024-03-06T05:48:53;24.33;;;15.87;;
6386;SDS011;3226;42.162;24.756;2024-03-06T05:51:38;23.83;;;16.50;;
6386;SDS011;3226;42.162;24.756;2024-03-06T05:54:24;24.20;;;16.53;;
6386;SDS011;3226;42.162;24.756;2024-03-06T05:57:09;25.27;;;15.90;;
6386;SDS011;3226;42.162;24.756;2024-03-06T05:59:56;25.40;;;16.90;;
6386;SDS011;3226;42.162;24.756;2024-03-06T06:02:24;22.07;;;15.53;;
6386;SDS011;3226;42.162;24.756;2024-03-06T06:04:52;22.57;;;16.93;;
6386;SDS011;3226;42.162;24.756;2024-03-06T06:07:40;23.60;;;15.57;;
6386;SDS011;3226;42.162;24.756;2024-03-06T06:10:08;19.23;;;14.33;;
6386;SDS011;3226;42.162;24.756;2024-03-06T06:12:37;19.47;;;14.37;;
6386;SDS011;3226;42.162;24.756;2024-03-06T06:15:07;20.23;;;14.80;;
6386;SDS011;3226;42.162;24.756;2024-03-06T06:17:35;22.87;;;14.90;;
6386;SDS011;3226;42.162;24.756;2024-03-06T06:20:06;24.07;;;14.03;;
6386;SDS011;3226;42.162;24.756;2024-03-06T06:22:36;20.87;;;14.43;;
6386;SDS011;3226;42.162;24.756;2024-03-06T06:25:04;23.73;;;16.57;;
6386;SDS011;3226;42.162;24.756;2024-03-06T06:27:33;21.50;;;14.27;;
6386;SDS011;3226;42.162;24.756;2024-03-06T06:30:01;22.23;;;14.97;;
6386;SDS011;3226;42.162;24.756;2024-03-06T06:32:34;20.27;;;13.50;;
6386;SDS011;3226;42.162;24.756;2024-03-06T06:35:02;21.03;;;15.10;;
6386;SDS011;3226;42.162;24.756;2024-03-06T06:37:31;20.57;;;14.07;;
6386;SDS011;3226;42.162;24.756;2024-03-06T06:40:00;28.90;;;24.87;;
6386;SDS011;3226;42.162;24.756;2024-03-06T06:42:33;24.87;;;22.23;;
6386;SDS011;3226;42.162;24.756;2024-03-06T06:45:03;21.23;;;16.13;;
6386;SDS011;3226;42.162;24.756;2024-03-06T06:47:34;22.00;;;13.77;;
6386;SDS011;3226;42.162;24.756;2024-03-06T06:50:03;19.77;;;13.17;;
6386;SDS011;3226;42.162;24.756;2024-03-06T06:52:32;22.87;;;16.03;;
6386;SDS011;3226;42.162;24.756;2024-03-06T06:55:01;19.87;;;14.37;;
6386;SDS011;3226;42.162;24.756;2024-03-06T06:57:29;20.67;;;15.13;;
6386;SDS011;3226;42.162;24.756;2024-03-06T06:59:57;19.97;;;16.30;;
6386;SDS011;3226;42.162;24.756;2024-03-06T07:02:25;22.20;;;15.53;;
6386;SDS011;3226;42.162;24.756;2024-03-06T07:04:55;16.67;;;13.00;;
6386;SDS011;3226;42.162;24.756;2024-03-06T07:07:23;29.53;;;20.77;;
6386;SDS011;3226;42.162;24.756;2024-03-06T07:09:52;22.47;;;16.60;;
6386;SDS011;3226;42.162;24.756;2024-03-06T07:12:20;20.30;;;13.50;;
6386;SDS011;3226;42.162;24.756;2024-03-06T07:14:48;17.63;;;13.30;;
6386;SDS011;3226;42.162;24.756;2024-03-06T07:17:16;22.03;;;18.57;;
6386;SDS011;3226;42.162;24.756;2024-03-06T07:19:44;18.63;;;15.67;;
6386;SDS011;3226;42.162;24.756;2024-03-06T07:22:13;21.57;;;14.43;;
6386;SDS011;3226;42.162;24.756;2024-03-06T07:24:42;20.23;;;15.23;;
6386;SDS011;3226;42.162;24.756;2024-03-06T07:27:10;19.37;;;17.27;;
6386;SDS011;3226;42.162;24.756;2024-03-06T07:29:38;18.23;;;15.97;;
6386;SDS011;3226;42.162;24.756;2024-03-06T07:32:06;19.70;;;13.77;;
6386;SDS011;3226;42.162;24.756;2024-03-06T07:34:34;19.23;;;14.57;;
6386;SDS011;3226;42.162;24.756;2024-03-06T07:37:02;16.40;;;14.53;;
6386;SDS011;3226;42.162;24.756;2024-03-06T07:39:33;16.37;;;13.00;;
6386;SDS011;3226;42.162;24.756;2024-03-06T07:42:01;18.13;;;14.40;;
6386;SDS011;3226;42.162;24.756;2024-03-06T07:44:29;22.53;;;16.53;;
6386;SDS011;3226;42.162;24.756;2024-03-06T07:46:57;17.10;;;13.93;;
6386;SDS011;3226;42.162;24.756;2024-03-06T07:49:26;18.80;;;14.00;;
6386;SDS011;3226;42.162;24.756;2024-03-06T07:51:54;18.90;;;14.07;;
6386;SDS011;3226;42.162;24.756;2024-03-06T07:54:23;19.10;;;14.90;;
6386;SDS011;3226;42.162;24.756;2024-03-06T07:56:52;16.80;;;13.60;;
6386;SDS011;3226;42.162;24.756;2024-03-06T07:59:21;15.37;;;13.17;;
6386;SDS011;3226;42.162;24.756;2024-03-06T08:01:49;18.90;;;15.07;;
6386;SDS011;3226;42.162;24.756;2024-03-06T08:04:17;19.27;;;16.57;;
6386;SDS011;3226;42.162;24.756;2024-03-06T08:06:45;19.20;;;14.03;;
6386;SDS011;3226;42.162;24.756;2024-03-06T08:09:13;20.63;;;16.23;;
6386;SDS011;3226;42.162;24.756;2024-03-06T08:11:40;15.93;;;14.17;;
6386;SDS011;3226;42.162;24.756;2024-03-06T08:14:10;22.37;;;16.13;;
6386;SDS011;3226;42.162;24.756;2024-03-06T08:16:38;18.57;;;14.67;;
6386;SDS011;3226;42.162;24.756;2024-03-06T08:19:07;32.27;;;20.33;;
6386;SDS011;3226;42.162;24.756;2024-03-06T08:21:36;20.97;;;13.60;;
6386;SDS011;3226;42.162;24.756;2024-03-06T08:24:04;21.17;;;15.80;;
6386;SDS011;3226;42.162;24.756;2024-03-06T08:26:32;19.57;;;13.63;;
6386;SDS011;3226;42.162;24.756;2024-03-06T08:29:01;17.03;;;13.33;;
6386;SDS011;3226;42.162;24.756;2024-03-06T08:31:30;18.83;;;15.80;;
6386;SDS011;3226;42.162;24.756;2024-03-06T08:33:59;14.83;;;13.33;;
6386;SDS011;3226;42.162;24.756;2024-03-06T08:36:27;14.10;;;12.30;;
6386;SDS011;3226;42.162;24.756;2024-03-06T08:38:56;16.53;;;14.33;;
6386;SDS011;3226;42.162;24.756;2024-03-06T08:41:24;17.77;;;15.90;;
6386;SDS011;3226;42.162;24.756;2024-03-06T08:43:52;16.67;;;13.40;;
6386;SDS011;3226;42.162;24.756;2024-03-06T08:46:20;18.50;;;15.47;;
6386;SDS011;3226;42.162;24.756;2024-03-06T08:48:51;18.03;;;16.40;;
6386;SDS011;3226;42.162;24.756;2024-03-06T08:51:20;25.33;;;23.23;;
6386;SDS011;3226;42.162;24.756;2024-03-06T08:53:48;15.20;;;13.77;;
6386;SDS011;3226;42.162;24.756;2024-03-06T08:56:16;16.70;;;15.03;;
6386;SDS011;3226;42.162;24.756;2024-03-06T08:58:45;19.80;;;17.90;;
6386;SDS011;3226;42.162;24.756;2024-03-06T09:01:13;16.63;;;15.00;;
6386;SDS011;3226;42.162;24.756;2024-03-06T09:03:41;17.50;;;15.27;;
6386;SDS011;3226;42.162;24.756;2024-03-06T09:06:10;18.70;;;16.90;;
6386;SDS011;3226;42.162;24.756;2024-03-06T09:08:39;16.37;;;14.87;;
6386;SDS011;3226;42.162;24.756;2024-03-06T09:11:07;18.30;;;15.13;;
6386;SDS011;3226;42.162;24.756;2024-03-06T09:13:35;16.93;;;15.43;;
6386;SDS011;3226;42.162;24.756;2024-03-06T09:16:03;17.13;;;14.33;;
6386;SDS011;3226;42.162;24.756;2024-03-06T09:18:31;20.13;;;18.40;;
6386;SDS011;3226;42.162;24.756;2024-03-06T09:21:00;22.90;;;21.10;;
6386;SDS011;3226;42.162;24.756;2024-03-06T09:23:30;17.83;;;16.30;;
6386;SDS011;3226;42.162;24.756;2024-03-06T09:25:59;17.17;;;15.53;;
6386;SDS011;3226;42.162;24.756;2024-03-06T09:28:27;30.47;;;28.10;;
6386;SDS011;3226;42.162;24.756;2024-03-06T09:30:55;18.47;;;16.27;;
6386;SDS011;3226;42.162;24.756;2024-03-06T09:33:23;28.53;;;26.27;;
6386;SDS011;3226;42.162;24.756;2024-03-06T09:35:51;22.57;;;20.83;;
6386;SDS011;3226;42.162;24.756;2024-03-06T09:38:20;25.67;;;23.57;;
6386;SDS011;3226;42.162;24.756;2024-03-06T09:40:49;27.67;;;25.63;;
6386;SDS011;3226;42.162;24.756;2024-03-06T09:43:17;55.00;;;51.70;;
6386;SDS011;3226;42.162;24.756;2024-03-06T09:45:46;27.57;;;25.63;;
6386;SDS011;3226;42.162;24.756;2024-03-06T09:48:18;17.33;;;15.63;;
6386;SDS011;3226;42.162;24.756;2024-03-06T09:50:48;23.87;;;22.00;;
6386;SDS011;3226;42.162;24.756;2024-03-06T09:53:18;20.63;;;16.17;;
6386;SDS011;3226;42.162;24.756;2024-03-06T09:55:50;18.87;;;17.03;;
6386;SDS011;3226;42.162;24.756;2024-03-06T09:58:19;17.33;;;14.43;;
6386;SDS011;3226;42.162;24.756;2024-03-06T10:00:47;17.60;;;14.83;;
6386;SDS011;3226;42.162;24.756;2024-03-06T10:03:17;16.40;;;14.70;;
6386;SDS011;3226;42.162;24.756;2024-03-06T10:05:46;18.33;;;16.83;;
6386;SDS011;3226;42.162;24.756;2024-03-06T10:08:14;15.37;;;13.03;;
6386;SDS011;3226;42.162;24.756;2024-03-06T10:10:43;13.73;;;12.43;;
6386;SDS011;3226;42.162;24.756;2024-03-06T10:13:13;18.30;;;16.23;;
6386;SDS011;3226;42.162;24.756;2024-03-06T10:15:52;17.33;;;14.20;;
6386;SDS011;3226;42.162;24.756;2024-03-06T10:18:26;17.17;;;14.93;;
6386;SDS011;3226;42.162;24.756;2024-03-06T10:20:54;16.50;;;14.87;;
6386;SDS011;3226;42.162;24.756;2024-03-06T10:23:23;15.93;;;14.23;;
6386;SDS011;3226;42.162;24.756;2024-03-06T10:25:51;19.63;;;17.90;;
6386;SDS011;3226;42.162;24.756;2024-03-06T10:28:21;22.30;;;20.40;;
6386;SDS011;3226;42.162;24.756;2024-03-06T10:30:50;25.47;;;23.23;;
6386;SDS011;3226;42.162;24.756;2024-03-06T10:33:19;20.00;;;18.40;;
6386;SDS011;3226;42.162;24.756;2024-03-06T10:35:47;40.07;;;37.17;;
6386;SDS011;3226;42.162;24.756;2024-03-06T10:38:16;40.67;;;38.00;;
6386;SDS011;3226;42.162;24.756;2024-03-06T10:40:47;37.30;;;34.93;;
6386;SDS011;3226;42.162;24.756;2024-03-06T10:43:18;19.30;;;17.60;;
6386;SDS011;3226;42.162;24.756;2024-03-06T10:45:50;18.43;;;16.77;;
6386;SDS011;3226;42.162;24.756;2024-03-06T10:48:25;18.33;;;16.90;;
6386;SDS011;3226;42.162;24.756;2024-03-06T10:50:56;14.83;;;12.33;;
6386;SDS011;3226;42.162;24.756;2024-03-06T10:53:29;19.97;;;18.43;;
6386;SDS011;3226;42.162;24.756;2024-03-06T10:55:59;19.97;;;18.10;;
6386;SDS011;3226;42.162;24.756;2024-03-06T10:58:31;14.90;;;13.57;;
6386;SDS011;3226;42.162;24.756;2024-03-06T11:01:01;15.63;;;14.13;;
6386;SDS011;3226;42.162;24.756;2024-03-06T11:03:31;15.80;;;14.13;;
6386;SDS011;3226;42.162;24.756;2024-03-06T11:06:02;18.13;;;13.60;;
6386;SDS011;3226;42.162;24.756;2024-03-06T11:08:32;19.77;;;17.73;;
6386;SDS011;3226;42.162;24.756;2024-03-06T11:11:19;19.93;;;18.30;;
6386;SDS011;3226;42.162;24.756;2024-03-06T11:13:50;16.33;;;12.17;;
6386;SDS011;3226;42.162;24.756;2024-03-06T11:16:26;15.77;;;13.50;;
6386;SDS011;3226;42.162;24.756;2024-03-06T11:19:05;17.50;;;14.83;;
6386;SDS011;3226;42.162;24.756;2024-03-06T11:21:34;23.03;;;18.23;;
6386;SDS011;3226;42.162;24.756;2024-03-06T11:24:13;17.27;;;15.73;;
6386;SDS011;3226;42.162;24.756;2024-03-06T11:26:42;16.87;;;15.30;;
6386;SDS011;3226;42.162;24.756;2024-03-06T11:29:13;13.37;;;12.07;;
6386;SDS011;3226;42.162;24.756;2024-03-06T11:31:56;14.97;;;13.37;;
6386;SDS011;3226;42.162;24.756;2024-03-06T11:34:35;21.97;;;20.40;;
6386;SDS011;3226;42.162;24.756;2024-03-06T11:37:05;17.77;;;16.07;;
6386;SDS011;3226;42.162;24.756;2024-03-06T11:39:36;15.70;;;13.77;;
6386;SDS011;3226;42.162;24.756;2024-03-06T11:42:06;16.23;;;14.53;;
6386;SDS011;3226;42.162;24.756;2024-03-06T11:44:36;16.93;;;14.23;;
6386;SDS011;3226;42.162;24.756;2024-03-06T11:47:20;29.93;;;27.37;;
6386;SDS011;3226;42.162;24.756;2024-03-06T11:49:48;17.63;;;15.73;;
6386;SDS011;3226;42.162;24.756;2024-03-06T11:52:17;15.27;;;13.03;;
6386;SDS011;3226;42.162;24.756;2024-03-06T11:54:53;16.90;;;14.33;;
6386;SDS011;3226;42.162;24.756;2024-03-06T11:57:21;15.47;;;13.13;;
6386;SDS011;3226;42.162;24.756;2024-03-06T11:59:51;26.23;;;24.10;;
6386;SDS011;3226;42.162;24.756;2024-03-06T12:02:20;20.17;;;18.17;;
6386;SDS011;3226;42.162;24.756;2024-03-06T12:04:48;18.20;;;15.73;;
6386;SDS011;3226;42.162;24.756;2024-03-06T12:07:18;18.07;;;15.03;;
6386;SDS011;3226;42.162;24.756;2024-03-06T12:09:46;18.83;;;14.67;;
6386;SDS011;3226;42.162;24.756;2024-03-06T12:12:15;20.67;;;16.43;;
6386;SDS011;3226;42.162;24.756;2024-03-06T12:14:44;18.57;;;15.03;;
6386;SDS011;3226;42.162;24.756;2024-03-06T12:17:24;19.83;;;15.20;;
6386;SDS011;3226;42.162;24.756;2024-03-06T12:19:54;26.87;;;24.53;;
6386;SDS011;3226;42.162;24.756;2024-03-06T12:22:24;18.20;;;14.10;;
6386;SDS011;3226;42.162;24.756;2024-03-06T12:24:57;23.73;;;21.27;;
6386;SDS011;3226;42.162;24.756;2024-03-06T12:27:27;33.70;;;31.07;;
6386;SDS011;3226;42.162;24.756;2024-03-06T12:29:55;25.43;;;22.13;;
6386;SDS011;3226;42.162;24.756;2024-03-06T12:32:23;18.27;;;16.27;;
6386;SDS011;3226;42.162;24.756;2024-03-06T12:34:56;22.57;;;16.40;;
6386;SDS011;3226;42.162;24.756;2024-03-06T12:37:30;23.60;;;16.43;;
6386;SDS011;3226;42.162;24.756;2024-03-06T12:39:59;21.77;;;19.60;;
6386;SDS011;3226;42.162;24.756;2024-03-06T12:42:29;22.50;;;20.27;;
6386;SDS011;3226;42.162;24.756;2024-03-06T12:44:57;20.87;;;18.63;;
6386;SDS011;3226;42.162;24.756;2024-03-06T12:47:25;20.33;;;17.60;;
6386;SDS011;3226;42.162;24.756;2024-03-06T12:49:54;20.47;;;17.30;;
6386;SDS011;3226;42.162;24.756;2024-03-06T12:52:22;21.07;;;16.90;;
6386;SDS011;3226;42.162;24.756;2024-03-06T12:54:50;23.27;;;16.87;;
6386;SDS011;3226;42.162;24.756;2024-03-06T12:57:17;26.17;;;17.70;;
6386;SDS011;3226;42.162;24.756;2024-03-06T12:59:47;19.93;;;16.40;;
6386;SDS011;3226;42.162;24.756;2024-03-06T13:02:15;21.20;;;17.47;;
6386;SDS011;3226;42.162;24.756;2024-03-06T13:04:43;21.93;;;17.13;;
6386;SDS011;3226;42.162;24.756;2024-03-06T13:07:11;21.30;;;16.13;;
6386;SDS011;3226;42.162;24.756;2024-03-06T13:09:41;18.97;;;16.63;;
6386;SDS011;3226;42.162;24.756;2024-03-06T13:12:09;22.33;;;19.77;;
6386;SDS011;3226;42.162;24.756;2024-03-06T13:14:37;21.47;;;17.77;;
6386;SDS011;3226;42.162;24.756;2024-03-06T13:17:06;19.73;;;17.07;;
6386;SDS011;3226;42.162;24.756;2024-03-06T13:19:34;19.67;;;16.13;;
6386;SDS011;3226;42.162;24.756;2024-03-06T13:22:02;20.00;;;17.53;;
6386;SDS011;3226;42.162;24.756;2024-03-06T13:24:34;24.20;;;20.80;;
6386;SDS011;3226;42.162;24.756;2024-03-06T13:27:07;22.53;;;20.30;;
6386;SDS011;3226;42.162;24.756;2024-03-06T13:29:35;20.83;;;18.73;;
6386;SDS011;3226;42.162;24.756;2024-03-06T13:32:03;19.97;;;17.30;;
6386;SDS011;3226;42.162;24.756;2024-03-06T13:34:33;20.47;;;16.00;;
6386;SDS011;3226;42.162;24.756;2024-03-06T13:37:01;18.20;;;15.80;;
6386;SDS011;3226;42.162;24.756;2024-03-06T13:39:28;19.87;;;14.90;;
6386;SDS011;3226;42.162;24.756;2024-03-06T13:41:56;18.10;;;14.77;;
6386;SDS011;3226;42.162;24.756;2024-03-06T13:44:24;22.77;;;18.87;;
6386;SDS011;3226;42.162;24.756;2024-03-06T13:46:52;19.40;;;17.30;;
6386;SDS011;3226;42.162;24.756;2024-03-06T13:49:35;21.80;;;16.53;;
6386;SDS011;3226;42.162;24.756;2024-03-06T13:52:06;18.83;;;14.43;;
6386;SDS011;3226;42.162;24.756;2024-03-06T13:54:37;20.20;;;15.10;;
6386;SDS011;3226;42.162;24.756;2024-03-06T13:57:05;20.87;;;15.50;;
6386;SDS011;3226;42.162;24.756;2024-03-06T13:59:34;19.57;;;17.47;;
6386;SDS011;3226;42.162;24.756;2024-03-06T14:02:04;21.13;;;18.97;;
6386;SDS011;3226;42.162;24.756;2024-03-06T14:04:35;18.03;;;16.17;;
6386;SDS011;3226;42.162;24.756;2024-03-06T14:07:03;19.67;;;14.83;;
6386;SDS011;3226;42.162;24.756;2024-03-06T14:09:31;22.87;;;15.70;;
6386;SDS011;3226;42.162;24.756;2024-03-06T14:11:58;22.20;;;20.27;;
6386;SDS011;3226;42.162;24.756;2024-03-06T14:14:27;29.30;;;26.67;;
6386;SDS011;3226;42.162;24.756;2024-03-06T14:16:55;19.50;;;15.07;;
6386;SDS011;3226;42.162;24.756;2024-03-06T14:19:23;18.70;;;16.60;;
6386;SDS011;3226;42.162;24.756;2024-03-06T14:21:52;21.47;;;15.13;;
6386;SDS011;3226;42.162;24.756;2024-03-06T14:24:20;18.40;;;15.60;;
6386;SDS011;3226;42.162;24.756;2024-03-06T14:26:49;17.70;;;15.87;;
6386;SDS011;3226;42.162;24.756;2024-03-06T14:29:17;17.83;;;16.00;;
6386;SDS011;3226;42.162;24.756;2024-03-06T14:31:45;18.43;;;16.50;;
6386;SDS011;3226;42.162;24.756;2024-03-06T14:34:13;16.50;;;14.77;;
6386;SDS011;3226;42.162;24.756;2024-03-06T14:36:41;17.30;;;15.70;;
6386;SDS011;3226;42.162;24.756;2024-03-06T14:39:11;16.87;;;14.83;;
6386;SDS011;3226;42.162;24.756;2024-03-06T14:41:39;18.03;;;16.40;;
6386;SDS011;3226;42.162;24.756;2024-03-06T14:44:09;18.23;;;13.13;;
6386;SDS011;3226;42.162;24.756;2024-03-06T14:46:37;30.63;;;27.43;;
6386;SDS011;3226;42.162;24.756;2024-03-06T14:49:05;36.13;;;33.50;;
6386;SDS011;3226;42.162;24.756;2024-03-06T14:51:33;19.77;;;17.80;;